createdAt,value
2018-02-16T00:01:10.473Z,0.46
2018-02-16T00:03:38.853Z,0.30
2018-02-16T00:06:07.232Z,0.28
2018-02-16T00:08:35.612Z,0.30
2018-02-16T00:11:04.112Z,0.15
2018-02-16T00:13:32.588Z,0.11
2018-02-16T00:16:01.839Z,-0.07
2018-02-16T00:18:30.242Z,-0.07
2018-02-16T00:20:59.408Z,-0.05
2018-02-16T00:23:27.808Z,0.02
2018-02-16T00:25:56.211Z,-0.19
2018-02-16T00:28:24.714Z,-0.23
2018-02-16T00:30:53.117Z,-0.25
2018-02-16T00:33:21.507Z,-0.31
2018-02-16T00:35:49.951Z,-0.33
2018-02-16T00:38:18.349Z,-0.40
2018-02-16T00:40:46.741Z,-0.52
2018-02-16T00:43:15.224Z,-0.40
2018-02-16T00:45:43.683Z,-0.40
2018-02-16T00:48:12.099Z,-0.47
2018-02-16T00:50:40.471Z,-0.49
2018-02-16T00:53:08.894Z,-0.54
2018-02-16T00:55:38.062Z,-0.39
2018-02-16T00:58:06.475Z,-0.24
2018-02-16T01:00:35.753Z,-0.32
2018-02-16T01:03:04.152Z,-0.34
2018-02-16T01:05:33.387Z,-0.32
2018-02-16T01:08:02.074Z,-0.37
2018-02-16T01:10:30.482Z,-0.44
2018-02-16T01:12:59.099Z,-0.47
2018-02-16T01:15:27.519Z,-0.61
2018-02-16T01:17:55.968Z,-0.64
2018-02-16T01:20:25.172Z,-0.77
2018-02-16T01:22:54.469Z,-0.66
2018-02-16T01:25:23.647Z,-0.74
2018-02-16T01:27:52.035Z,-0.84
2018-02-16T01:30:20.738Z,-0.94
2018-02-16T01:32:49.902Z,-0.84
2018-02-16T01:35:18.301Z,-0.88
2018-02-16T01:37:46.704Z,-0.83
2018-02-16T01:40:15.846Z,-0.88
2018-02-16T01:42:44.383Z,-0.84
2018-02-16T01:45:13.560Z,-0.78
2018-02-16T01:47:41.964Z,-0.75
2018-02-16T01:50:11.139Z,-0.75
2018-02-16T01:52:39.570Z,-0.72
2018-02-16T01:55:07.954Z,-0.47
2018-02-16T01:57:36.542Z,-0.08
2018-02-16T02:00:04.918Z,0.13
2018-02-16T02:02:33.430Z,0.14
2018-02-16T02:05:01.813Z,0.15
2018-02-16T02:07:30.201Z,0.14
2018-02-16T02:09:58.568Z,0.08
2018-02-16T02:12:27.000Z,0.08
2018-02-16T02:14:55.433Z,0.17
2018-02-16T02:17:23.807Z,0.28
2018-02-16T02:19:52.198Z,0.21
2018-02-16T02:22:20.573Z,0.19
2018-02-16T02:24:49.004Z,0.28
2018-02-16T02:27:17.374Z,0.17
2018-02-16T02:29:46.530Z,0.07
2018-02-16T02:32:14.923Z,0.17
2018-02-16T02:34:43.304Z,0.14
2018-02-16T02:37:11.691Z,0.07
2018-02-16T02:39:40.853Z,0.08
2018-02-16T02:42:09.254Z,0.10
2018-02-16T02:44:37.760Z,0.20
2018-02-16T02:47:06.928Z,0.12
2018-02-16T02:49:35.322Z,0.09
2018-02-16T02:52:03.896Z,0.32
2018-02-16T02:54:32.274Z,0.18
2018-02-16T02:57:00.651Z,0.08
2018-02-16T02:59:29.060Z,0.06
2018-02-16T03:01:57.440Z,0.06
2018-02-16T03:04:26.632Z,0.02
2018-02-16T03:06:55.015Z,-0.05
2018-02-16T03:09:23.664Z,-0.11
2018-02-16T03:11:52.049Z,-0.18
2018-02-16T03:14:20.422Z,-0.18
2018-02-16T03:16:48.846Z,-0.08
2018-02-16T03:19:17.242Z,-0.11
2018-02-16T03:21:46.395Z,0.14
2018-02-16T03:24:14.785Z,0.03
2018-02-16T03:26:43.195Z,-0.26
2018-02-16T03:29:12.396Z,-0.33
2018-02-16T03:31:41.567Z,-0.39
2018-02-16T03:34:10.117Z,-0.43
2018-02-16T03:36:38.505Z,-0.43
2018-02-16T03:39:06.923Z,-0.50
2018-02-16T03:41:35.311Z,-0.36
2018-02-16T03:44:04.479Z,-0.52
2018-02-16T03:46:32.884Z,-0.61
2018-02-16T03:49:02.066Z,-0.70
2018-02-16T03:51:30.486Z,-0.86
2018-02-16T03:53:59.651Z,-0.91
2018-02-16T03:56:28.830Z,-0.88
2018-02-16T03:58:57.335Z,-0.88
2018-02-16T04:01:26.531Z,-0.93
2018-02-16T04:03:54.908Z,-0.80
2018-02-16T04:06:23.302Z,-0.79
2018-02-16T04:08:51.707Z,-0.63
2018-02-16T04:11:20.862Z,-0.49
2018-02-16T04:13:49.262Z,-0.56
2018-02-16T04:16:17.872Z,-0.60
2018-02-16T04:18:47.055Z,-0.68
2018-02-16T04:21:15.465Z,-0.82
2018-02-16T04:23:43.866Z,-0.76
2018-02-16T04:26:12.296Z,-0.79
2018-02-16T04:28:40.730Z,-0.98
2018-02-16T04:31:09.107Z,-1.04
2018-02-16T04:33:37.523Z,-1.13
2018-02-16T04:36:06.692Z,-1.14
2018-02-16T04:38:35.116Z,-1.08
2018-02-16T04:41:04.270Z,-1.15
2018-02-16T04:43:32.651Z,-1.14
2018-02-16T04:46:01.046Z,-1.19
2018-02-16T04:48:30.216Z,-1.23
2018-02-16T04:50:58.652Z,-1.26
2018-02-16T04:53:27.034Z,-1.29
2018-02-16T04:55:55.423Z,-1.08
2018-02-16T04:58:24.073Z,-1.02
2018-02-16T05:00:52.528Z,-1.02
2018-02-16T05:03:20.890Z,-0.97
2018-02-16T05:05:49.324Z,-0.82
2018-02-16T05:08:17.925Z,-0.82
2018-02-16T05:10:47.078Z,-0.91
2018-02-16T05:13:15.478Z,-0.95
2018-02-16T05:15:43.903Z,-1.10
2018-02-16T05:18:13.071Z,-1.17
2018-02-16T05:20:42.223Z,-1.25
2018-02-16T05:23:10.601Z,-1.28
2018-02-16T05:25:39.018Z,-1.24
2018-02-16T05:28:07.646Z,-1.34
2018-02-16T05:30:36.044Z,-1.46
2018-02-16T05:33:04.426Z,-1.40
2018-02-16T05:35:32.846Z,-1.41
2018-02-16T05:38:01.231Z,-1.35
2018-02-16T05:40:29.624Z,-1.38
2018-02-16T05:42:58.809Z,-1.46
2018-02-16T05:45:27.274Z,-1.51
2018-02-16T05:47:55.685Z,-1.54
2018-02-16T05:50:24.999Z,-1.67
2018-02-16T05:52:53.384Z,-1.72
2018-02-16T05:55:21.794Z,-1.68
2018-02-16T05:57:50.275Z,-1.64
2018-02-16T06:00:18.718Z,-1.52
2018-02-16T06:02:48.035Z,-1.63
2018-02-16T06:05:16.436Z,-1.68
2018-02-16T06:07:44.850Z,-1.74
2018-02-16T06:10:13.271Z,-1.77
2018-02-16T06:12:41.770Z,-1.74
2018-02-16T06:15:10.164Z,-1.72
2018-02-16T06:17:38.625Z,-1.65
2018-02-16T06:20:07.154Z,-1.63
2018-02-16T06:22:35.752Z,-1.60
2018-02-16T06:25:04.124Z,-1.69
2018-02-16T06:27:32.763Z,-1.59
2018-02-16T06:30:01.181Z,-1.67
2018-02-16T06:32:29.565Z,-1.63
2018-02-16T06:34:57.948Z,-1.67
2018-02-16T06:37:27.101Z,-1.64
2018-02-16T06:39:55.490Z,-1.60
2018-02-16T06:42:23.967Z,-1.54
2018-02-16T06:44:52.358Z,-1.47
2018-02-16T06:47:20.750Z,-1.43
2018-02-16T06:49:49.162Z,-1.47
2018-02-16T06:52:17.690Z,-1.37
2018-02-16T06:54:46.144Z,-1.24
2018-02-16T06:57:15.322Z,-0.72
2018-02-16T06:59:43.710Z,-0.69
2018-02-16T07:02:12.886Z,-0.69
2018-02-16T07:04:41.481Z,-0.71
2018-02-16T07:07:10.013Z,-0.65
2018-02-16T07:09:38.419Z,-0.51
2018-02-16T07:12:06.872Z,-0.08
2018-02-16T07:14:35.260Z,0.05
2018-02-16T07:17:03.816Z,0.14
2018-02-16T07:19:33.006Z,0.10
2018-02-16T07:22:02.189Z,0.03
2018-02-16T07:24:30.617Z,0.02
2018-02-16T07:26:59.016Z,-0.15
2018-02-16T07:29:27.456Z,-0.10
2018-02-16T07:31:56.696Z,-0.13
2018-02-16T07:34:25.099Z,0.01
2018-02-16T07:36:53.478Z,0.32
2018-02-16T07:39:21.862Z,0.42
2018-02-16T07:41:50.277Z,0.18
2018-02-16T07:44:19.473Z,0.31
2018-02-16T07:46:48.620Z,0.12
2018-02-16T07:49:17.029Z,0.09
2018-02-16T07:51:45.428Z,0.09
2018-02-16T07:54:14.616Z,0.12
2018-02-16T07:56:43.000Z,0.16
2018-02-16T07:59:11.504Z,0.18
2018-02-16T08:01:39.882Z,0.16
2018-02-16T08:04:08.380Z,0.27
2018-02-16T08:06:36.795Z,0.33
2018-02-16T08:09:05.236Z,0.30
2018-02-16T08:11:33.704Z,0.40
2018-02-16T08:14:02.861Z,0.41
2018-02-16T08:16:31.279Z,0.54
2018-02-16T08:19:00.435Z,0.51
2018-02-16T08:21:28.862Z,0.60
2018-02-16T08:23:57.252Z,0.71
2018-02-16T08:26:25.779Z,1.02
2018-02-16T08:28:54.225Z,1.20
2018-02-16T08:31:22.633Z,1.27
2018-02-16T08:33:51.031Z,1.29
2018-02-16T08:36:19.414Z,1.53
2018-02-16T08:38:47.853Z,1.90
2018-02-16T08:41:16.511Z,2.20
2018-02-16T08:43:45.728Z,2.36
2018-02-16T08:46:14.100Z,2.72
2018-02-16T08:48:43.273Z,2.90
2018-02-16T08:51:11.651Z,2.88
2018-02-16T08:53:40.039Z,3.29
2018-02-16T08:56:08.438Z,3.51
2018-02-16T08:58:37.627Z,3.86
2018-02-16T09:01:06.842Z,3.72
2018-02-16T09:03:36.947Z,3.86
2018-02-16T09:06:06.133Z,4.10
2018-02-16T09:08:34.518Z,4.30
2018-02-16T09:11:02.913Z,4.66
2018-02-16T09:13:32.151Z,4.76
2018-02-16T09:16:00.556Z,5.17
2018-02-16T09:18:28.955Z,5.13
2018-02-16T09:20:57.368Z,5.38
2018-02-16T09:23:25.792Z,5.52
2018-02-16T09:25:54.248Z,5.53
2018-02-16T09:28:22.633Z,5.65
2018-02-16T09:30:51.086Z,5.56
2018-02-16T09:33:20.263Z,5.58
2018-02-16T09:35:50.097Z,5.69
2018-02-16T09:38:19.417Z,5.82
2018-02-16T09:40:47.801Z,5.72
2018-02-16T09:43:16.274Z,5.54
2018-02-16T09:45:44.664Z,5.66
2018-02-16T09:48:13.053Z,5.55
2018-02-16T09:50:41.498Z,5.16
2018-02-16T09:53:10.650Z,5.16
2018-02-16T09:55:39.036Z,5.46
2018-02-16T09:58:07.426Z,5.99
2018-02-16T10:00:35.965Z,7.29
2018-02-16T10:03:04.351Z,8.83
2018-02-16T10:05:32.758Z,8.62
2018-02-16T10:08:01.184Z,9.56
2018-02-16T10:10:29.575Z,9.34
2018-02-16T10:12:58.816Z,10.42
2018-02-16T10:15:27.358Z,9.75
2018-02-16T10:17:56.544Z,10.39
2018-02-16T10:20:24.947Z,10.60
2018-02-16T10:22:53.339Z,11.12
2018-02-16T10:25:21.778Z,11.31
2018-02-16T10:27:50.194Z,11.36
2018-02-16T10:30:19.415Z,10.50
2018-02-16T10:32:47.809Z,10.08
2018-02-16T10:35:16.240Z,10.38
2018-02-16T10:37:45.398Z,10.48
2018-02-16T10:40:13.794Z,10.72
2018-02-16T10:42:42.190Z,10.25
2018-02-16T10:45:11.363Z,10.61
2018-02-16T10:47:39.783Z,10.02
2018-02-16T10:50:08.937Z,10.23
2018-02-16T10:52:37.352Z,9.11
2018-02-16T10:55:05.743Z,9.08
2018-02-16T10:57:35.097Z,8.25
2018-02-16T11:00:03.805Z,8.14
2018-02-16T11:02:37.514Z,7.81
2018-02-16T11:05:11.419Z,7.76
2018-02-16T11:07:45.292Z,8.26
2018-02-16T11:10:14.437Z,8.94
2018-02-16T11:12:42.794Z,8.95
2018-02-16T11:15:11.175Z,9.15
2018-02-16T11:17:39.579Z,9.48
2018-02-16T11:20:07.980Z,10.42
2018-02-16T11:22:37.129Z,10.68
2018-02-16T11:25:05.570Z,10.61
2018-02-16T11:27:34.734Z,10.61
2018-02-16T11:30:03.130Z,9.93
2018-02-16T11:32:31.535Z,10.00
2018-02-16T11:35:00.709Z,9.91
2018-02-16T11:37:29.145Z,9.10
2018-02-16T11:39:57.527Z,8.98
2018-02-16T11:42:25.917Z,8.91
2018-02-16T11:44:54.463Z,9.01
2018-02-16T11:47:23.659Z,9.35
2018-02-16T11:49:52.080Z,9.54
2018-02-16T11:52:20.483Z,9.76
2018-02-16T11:54:48.897Z,9.86
2018-02-16T11:57:17.285Z,9.98
2018-02-16T11:59:47.059Z,9.82
2018-02-16T12:02:15.469Z,10.30
2018-02-16T12:04:44.158Z,10.27
2018-02-16T12:07:12.617Z,9.98
2018-02-16T12:09:41.020Z,10.16
2018-02-16T12:12:09.446Z,9.76
2018-02-16T12:14:37.819Z,9.64
2018-02-16T12:17:06.468Z,9.58
2018-02-16T12:19:34.852Z,9.07
2018-02-16T12:22:03.250Z,8.90
2018-02-16T12:24:31.912Z,8.47
2018-02-16T12:27:01.333Z,8.39
2018-02-16T12:29:29.896Z,8.55
2018-02-16T12:31:58.293Z,8.94
2018-02-16T12:34:27.460Z,9.13
2018-02-16T12:36:55.881Z,8.49
2018-02-16T12:39:25.034Z,8.95
2018-02-16T12:41:53.442Z,9.32
2018-02-16T12:44:22.064Z,9.87
2018-02-16T12:46:50.442Z,9.77
2018-02-16T12:49:19.698Z,9.98
2018-02-16T12:51:48.092Z,9.85
2018-02-16T12:54:17.268Z,9.84
2018-02-16T12:56:45.781Z,9.70
2018-02-16T12:59:14.427Z,9.64
2018-02-16T13:01:42.872Z,9.33
2018-02-16T13:04:11.349Z,9.81
2018-02-16T13:06:51.680Z,9.99
2018-02-16T13:09:21.208Z,9.86
2018-02-16T13:11:49.644Z,9.87
2018-02-16T13:14:18.045Z,9.81
2018-02-16T13:16:46.814Z,9.56
2018-02-16T13:19:15.334Z,9.70
2018-02-16T13:21:43.920Z,10.03
2018-02-16T13:24:12.377Z,9.73
2018-02-16T13:27:08.624Z,9.85
2018-02-16T13:29:37.335Z,9.79
2018-02-16T13:32:05.959Z,9.33
2018-02-16T13:34:34.562Z,9.39
2018-02-16T13:37:03.056Z,9.68
2018-02-16T13:39:31.488Z,9.86
2018-02-16T13:41:59.919Z,9.58
2018-02-16T13:44:28.401Z,9.64
2018-02-16T13:46:56.821Z,9.71
2018-02-16T13:49:25.235Z,9.75
2018-02-16T13:51:53.782Z,9.70
2018-02-16T13:54:22.269Z,9.64
2018-02-16T13:56:50.752Z,9.71
2018-02-16T13:59:19.125Z,9.94
2018-02-16T14:01:47.524Z,10.09
2018-02-16T14:04:15.931Z,10.16
2018-02-16T14:06:45.113Z,10.13
2018-02-16T14:09:14.272Z,10.14
2018-02-16T14:11:42.675Z,10.44
2018-02-16T14:14:11.087Z,10.73
2018-02-16T14:16:41.818Z,10.80
2018-02-16T14:19:11.007Z,10.65
2018-02-16T14:21:39.454Z,10.68
2018-02-16T14:24:07.974Z,10.24
2018-02-16T14:26:36.457Z,10.18
2018-02-16T14:29:04.893Z,10.22
2018-02-16T14:31:33.295Z,9.70
2018-02-16T14:34:01.755Z,9.99
2018-02-16T14:36:30.153Z,10.07
2018-02-16T14:38:58.603Z,10.00
2018-02-16T14:41:28.041Z,9.57
2018-02-16T14:43:56.451Z,10.03
2018-02-16T14:46:29.547Z,10.30
2018-02-16T14:49:10.038Z,10.40
2018-02-16T14:51:41.569Z,9.99
2018-02-16T14:54:14.104Z,9.51
2018-02-16T14:56:42.512Z,9.19
2018-02-16T14:59:11.540Z,9.11
2018-02-16T15:01:39.979Z,9.08
2018-02-16T15:04:08.414Z,9.02
2018-02-16T15:06:36.890Z,8.87
2018-02-16T15:09:06.136Z,8.73
2018-02-16T15:11:34.573Z,8.67
2018-02-16T15:14:02.997Z,8.48
2018-02-16T15:16:31.421Z,8.36
2018-02-16T15:19:00.583Z,8.30
2018-02-16T15:21:28.990Z,8.29
2018-02-16T15:23:58.242Z,8.21
2018-02-16T15:26:27.374Z,8.18
2018-02-16T15:28:57.477Z,8.08
2018-02-16T15:31:27.234Z,7.97
2018-02-16T15:33:56.604Z,7.81
2018-02-16T15:36:25.015Z,7.83
2018-02-16T15:38:54.200Z,7.98
2018-02-16T15:41:22.623Z,7.85
2018-02-16T15:43:51.025Z,7.78
2018-02-16T15:46:19.406Z,7.73
2018-02-16T15:48:48.720Z,7.60
2018-02-16T15:51:17.152Z,7.54
2018-02-16T15:53:45.556Z,7.51
2018-02-16T15:56:13.942Z,7.27
2018-02-16T15:58:42.388Z,7.26
2018-02-16T16:01:11.578Z,7.15
2018-02-16T16:03:40.757Z,7.10
2018-02-16T16:06:09.147Z,7.01
2018-02-16T16:08:38.434Z,6.93
2018-02-16T16:11:06.887Z,6.86
2018-02-16T16:13:35.358Z,6.73
2018-02-16T16:16:03.782Z,6.45
2018-02-16T16:18:32.226Z,6.43
2018-02-16T16:21:00.688Z,6.14
2018-02-16T16:23:29.114Z,6.03
2018-02-16T16:25:57.686Z,5.95
2018-02-16T16:28:26.064Z,5.90
2018-02-16T16:30:54.468Z,5.64
2018-02-16T16:33:22.913Z,5.44
2018-02-16T16:35:51.338Z,5.29
2018-02-16T16:38:19.921Z,5.14
2018-02-16T16:40:48.319Z,4.94
2018-02-16T16:43:18.048Z,4.79
2018-02-16T16:45:47.248Z,4.69
2018-02-16T16:48:17.999Z,4.43
2018-02-16T16:50:47.187Z,4.42
2018-02-16T16:53:17.757Z,4.01
2018-02-16T16:55:46.190Z,3.82
2018-02-16T16:58:16.005Z,3.65
2018-02-16T17:00:45.210Z,3.53
2018-02-16T17:03:16.053Z,3.32
2018-02-16T17:05:45.226Z,3.14
2018-02-16T17:08:15.234Z,3.05
2018-02-16T17:10:43.621Z,2.83
2018-02-16T17:13:13.518Z,2.66
2018-02-16T17:15:42.010Z,2.73
2018-02-16T17:18:11.765Z,2.63
2018-02-16T17:20:40.966Z,2.50
2018-02-16T17:23:11.747Z,2.64
2018-02-16T17:25:40.176Z,2.56
2018-02-16T17:28:09.669Z,2.53
2018-02-16T17:30:38.100Z,2.35
2018-02-16T17:33:07.802Z,2.18
2018-02-16T17:35:37.027Z,2.04
2018-02-16T17:38:05.430Z,1.98
2018-02-16T17:40:33.822Z,1.98
2018-02-16T17:43:02.258Z,1.90
2018-02-16T17:45:30.803Z,1.84
2018-02-16T17:47:59.255Z,1.69
2018-02-16T17:50:28.447Z,1.45
2018-02-16T17:52:57.063Z,1.45
2018-02-16T17:55:25.526Z,1.41
2018-02-16T17:57:53.911Z,1.27
2018-02-16T18:00:22.320Z,1.09
2018-02-16T18:02:50.766Z,1.02
2018-02-16T18:05:19.365Z,1.02
2018-02-16T18:07:47.761Z,0.94
2018-02-16T18:10:16.233Z,0.93
2018-02-16T18:12:44.672Z,0.91
2018-02-16T18:15:13.873Z,0.86
2018-02-16T18:17:42.359Z,0.84
2018-02-16T18:20:11.696Z,1.00
2018-02-16T18:22:40.963Z,0.90
2018-02-16T18:25:09.461Z,0.86
2018-02-16T18:27:37.844Z,0.63
2018-02-16T18:30:06.405Z,0.64
2018-02-16T18:32:35.600Z,0.56
2018-02-16T18:35:04.777Z,0.51
2018-02-16T18:37:33.193Z,0.21
2018-02-16T18:40:01.615Z,0.41
2018-02-16T18:42:30.027Z,0.25
2018-02-16T18:44:58.422Z,0.29
2018-02-16T18:47:26.912Z,0.11
2018-02-16T18:49:55.313Z,0.23
2018-02-16T18:52:23.875Z,0.16
2018-02-16T18:54:52.284Z,0.06
2018-02-16T18:57:20.719Z,0.41
2018-02-16T18:59:50.991Z,0.73
2018-02-16T19:02:19.393Z,0.62
2018-02-16T19:04:48.278Z,0.49
2018-02-16T19:07:16.865Z,0.55
2018-02-16T19:09:45.279Z,0.32
2018-02-16T19:12:13.907Z,0.14
2018-02-16T19:14:42.303Z,0.11
2018-02-16T19:17:10.733Z,0.09
2018-02-16T19:19:39.267Z,-0.04
2018-02-16T19:22:07.723Z,-0.19
2018-02-16T19:24:36.986Z,-0.22
2018-02-16T19:27:05.411Z,-0.34
2018-02-16T19:29:34.258Z,-0.10
2018-02-16T19:32:03.520Z,-0.07
2018-02-16T19:34:32.229Z,-0.12
2018-02-16T19:37:00.685Z,-0.17
2018-02-16T19:39:30.416Z,-0.30
2018-02-16T19:42:01.872Z,-0.40
2018-02-16T19:44:30.651Z,-0.49
2018-02-16T19:46:59.741Z,-0.54
2018-02-16T19:49:28.248Z,-0.53
2018-02-16T19:51:57.174Z,-0.59
2018-02-16T19:54:26.015Z,-0.67
2018-02-16T19:56:54.715Z,-0.77
2018-02-16T19:59:23.595Z,-0.63
2018-02-16T20:01:52.075Z,-0.71
2018-02-16T20:04:20.689Z,-0.66
2018-02-16T20:06:49.434Z,-0.54
2018-02-16T20:09:18.338Z,-0.70
2018-02-16T20:11:47.337Z,-0.72
2018-02-16T20:14:16.935Z,-1.00
2018-02-16T20:16:45.555Z,-0.56
2018-02-16T20:19:14.053Z,-0.34
2018-02-16T20:21:43.206Z,-0.27
2018-02-16T20:24:12.506Z,-0.27
2018-02-16T20:26:41.294Z,-0.50
2018-02-16T20:29:10.020Z,-0.62
2018-02-16T20:31:39.591Z,-0.66
2018-02-16T20:34:08.555Z,-0.63
2018-02-16T20:36:37.015Z,-0.69
2018-02-16T20:39:05.860Z,-0.74
2018-02-16T20:41:35.515Z,-0.90
2018-02-16T20:44:04.098Z,-0.90
2018-02-16T20:46:33.282Z,-0.91
2018-02-16T20:49:02.901Z,-1.01
2018-02-16T20:51:31.429Z,-0.96
2018-02-16T20:53:59.833Z,-1.08
2018-02-16T20:56:28.284Z,-1.15
2018-02-16T20:58:56.816Z,-1.13
2018-02-16T21:01:25.321Z,-0.92
2018-02-16T21:03:58.363Z,-0.95
2018-02-16T21:06:38.373Z,-0.91
2018-02-16T21:09:10.006Z,-0.94
2018-02-16T21:11:38.557Z,-0.89
2018-02-16T21:14:06.992Z,-0.82
2018-02-16T21:16:35.424Z,-0.71
2018-02-16T21:19:03.847Z,-0.64
2018-02-16T21:21:35.999Z,-0.84
2018-02-16T21:24:06.988Z,-0.70
2018-02-16T21:26:35.537Z,-0.86
2018-02-16T21:29:04.077Z,-0.81
2018-02-16T21:31:32.519Z,-0.83
2018-02-16T21:34:01.031Z,-0.70
2018-02-16T21:36:29.470Z,-0.62
2018-02-16T21:38:58.370Z,-0.53
2018-02-16T21:41:27.717Z,-0.51
2018-02-16T21:43:56.276Z,-0.49
2018-02-16T21:46:26.306Z,-0.47
2018-02-16T21:48:56.380Z,-0.59
2018-02-16T21:51:25.060Z,-0.61
2018-02-16T21:53:53.746Z,-0.51
2018-02-16T21:56:24.845Z,-0.39
2018-02-16T21:58:53.368Z,-0.41
2018-02-16T22:01:23.425Z,-0.29
2018-02-16T22:03:52.579Z,-0.20
2018-02-16T22:06:21.984Z,-0.15
2018-02-16T22:08:50.446Z,-0.09
2018-02-16T22:11:19.000Z,-0.09
2018-02-16T22:13:47.443Z,0.13
2018-02-16T22:16:16.057Z,0.19
2018-02-16T22:18:45.373Z,0.34
2018-02-16T22:21:13.853Z,0.36
2018-02-16T22:23:43.047Z,0.46
2018-02-16T22:26:12.216Z,0.58
2018-02-16T22:28:40.725Z,0.60
2018-02-16T22:31:09.387Z,0.82
2018-02-16T22:33:37.987Z,0.82
2018-02-16T22:36:07.670Z,0.84
2018-02-16T22:38:36.120Z,0.76
2018-02-16T22:41:04.503Z,0.69
2018-02-16T22:43:33.227Z,0.56
2018-02-16T22:46:02.899Z,0.43
2018-02-16T22:48:33.122Z,0.24
2018-02-16T22:51:02.668Z,0.29
2018-02-16T22:53:31.603Z,0.40
2018-02-16T22:56:00.814Z,0.30
2018-02-16T22:58:29.206Z,0.09
2018-02-16T23:00:57.600Z,0.09
2018-02-16T23:03:26.483Z,0.21
2018-02-16T23:05:54.887Z,0.22
2018-02-16T23:08:23.281Z,0.28
2018-02-16T23:10:52.447Z,0.26
2018-02-16T23:13:20.924Z,0.16
2018-02-16T23:15:49.326Z,0.00
2018-02-16T23:18:17.962Z,-0.13
2018-02-16T23:20:47.191Z,-0.16
2018-02-16T23:23:16.347Z,-0.09
2018-02-16T23:25:45.558Z,-0.21
2018-02-16T23:28:14.783Z,-0.40
2018-02-16T23:30:43.564Z,-0.37
2018-02-16T23:33:11.982Z,-0.31
2018-02-16T23:35:40.627Z,-0.33
2018-02-16T23:38:09.043Z,-0.41
2018-02-16T23:40:37.480Z,-0.40
2018-02-16T23:43:06.812Z,-0.44
2018-02-16T23:45:36.069Z,-0.45
2018-02-16T23:48:04.449Z,-0.55
2018-02-16T23:50:32.869Z,-0.44
2018-02-16T23:53:03.219Z,-0.38
2018-02-16T23:55:34.452Z,-0.42
2018-02-16T23:58:13.836Z,-0.50
